createdAt,value
2022-12-03T00:00:13.275Z,5.35
2022-12-03T00:02:41.615Z,5.45
2022-12-03T00:05:12.065Z,5.03
2022-12-03T00:07:39.190Z,4.88
2022-12-03T00:10:08.041Z,4.93
2022-12-03T00:12:35.375Z,5.15
2022-12-03T00:15:04.513Z,4.97
2022-12-03T00:17:57.142Z,5.18
2022-12-03T00:20:25.942Z,4.55
2022-12-03T00:22:53.398Z,5.03
2022-12-03T00:25:20.557Z,5.13
2022-12-03T00:27:48.221Z,5.22
2022-12-03T00:30:16.609Z,3.88
2022-12-03T00:32:43.519Z,5.60
2022-12-03T00:35:10.835Z,4.35
2022-12-03T00:37:37.873Z,5.45
2022-12-03T00:40:06.857Z,4.72
2022-12-03T00:42:33.899Z,5.95
2022-12-03T00:47:54.232Z,5.35
2022-12-03T00:50:21.267Z,4.38
2022-12-03T00:52:48.138Z,4.35
2022-12-03T00:55:15.834Z,4.88
2022-12-03T00:57:42.804Z,4.70
2022-12-03T01:00:12.754Z,4.40
2022-12-03T01:02:39.723Z,5.30
2022-12-03T01:05:09.347Z,4.40
2022-12-03T01:07:36.748Z,4.82
2022-12-03T01:10:04.109Z,4.95
2022-12-03T01:12:31.012Z,4.88
2022-12-03T01:14:58.037Z,5.20
2022-12-03T01:17:24.905Z,4.93
2022-12-03T01:19:52.041Z,4.93
2022-12-03T01:22:20.368Z,4.63
2022-12-03T01:24:47.197Z,4.78
2022-12-03T01:27:13.992Z,4.88
2022-12-03T01:29:40.938Z,5.47
2022-12-03T01:32:08.916Z,4.60
2022-12-03T01:34:35.765Z,5.25
2022-12-03T01:37:02.988Z,4.82
2022-12-03T01:39:31.207Z,4.63
2022-12-03T01:41:58.518Z,5.10
2022-12-03T01:44:29.256Z,5.18
2022-12-03T01:47:00.922Z,4.47
2022-12-03T01:49:35.106Z,4.40
2022-12-03T01:52:02.178Z,5.00
2022-12-03T01:54:38.262Z,4.93
2022-12-03T01:57:12.050Z,4.57
2022-12-03T01:59:39.705Z,5.03
2022-12-03T02:02:14.251Z,5.22
2022-12-03T02:04:41.368Z,4.70
2022-12-03T02:07:25.847Z,4.97
2022-12-03T02:09:57.165Z,5.43
2022-12-03T02:12:32.942Z,5.30
2022-12-03T02:15:01.917Z,4.80
2022-12-03T02:17:29.615Z,5.30
2022-12-03T02:19:57.412Z,4.50
2022-12-03T02:22:37.638Z,4.50
2022-12-03T02:25:15.439Z,4.97
2022-12-03T02:27:43.684Z,5.35
2022-12-03T02:30:18.877Z,4.40
2022-12-03T02:32:50.683Z,4.50
2022-12-03T02:35:22.890Z,4.35
2022-12-03T02:37:53.921Z,4.65
2022-12-03T02:40:31.022Z,4.65
2022-12-03T02:43:04.100Z,4.95
2022-12-03T02:45:35.664Z,4.20
2022-12-03T02:48:08.426Z,4.45
2022-12-03T02:50:41.849Z,5.03
2022-12-03T02:53:14.946Z,5.22
2022-12-03T02:55:44.933Z,4.55
2022-12-03T02:58:14.224Z,4.07
2022-12-03T03:00:43.049Z,4.55
2022-12-03T03:03:12.231Z,4.80
2022-12-03T03:05:41.056Z,5.30
2022-12-03T03:08:10.567Z,4.60
2022-12-03T03:10:39.867Z,4.78
2022-12-03T03:13:12.768Z,5.07
2022-12-03T03:15:42.226Z,4.03
2022-12-03T03:18:18.836Z,4.35
2022-12-03T03:20:46.052Z,4.68
2022-12-03T03:23:18.824Z,4.75
2022-12-03T03:25:51.532Z,5.40
2022-12-03T03:28:24.934Z,4.35
2022-12-03T03:30:52.433Z,4.78
2022-12-03T03:33:19.546Z,4.78
2022-12-03T03:35:49.064Z,4.82
2022-12-03T03:38:19.991Z,4.32
2022-12-03T03:40:48.903Z,4.75
2022-12-03T03:43:16.020Z,5.18
2022-12-03T03:45:44.964Z,4.50
2022-12-03T03:48:13.638Z,4.68
2022-12-03T03:50:42.402Z,5.57
2022-12-03T03:53:11.789Z,5.07
2022-12-03T03:55:39.964Z,5.53
2022-12-03T03:58:07.568Z,5.47
2022-12-03T04:00:36.374Z,4.50
2022-12-03T04:03:05.659Z,5.03
2022-12-03T04:05:32.913Z,4.38
2022-12-03T04:07:59.806Z,4.57
2022-12-03T04:10:27.217Z,4.78
2022-12-03T04:12:54.415Z,5.03
2022-12-03T04:15:21.515Z,5.03
2022-12-03T04:17:48.523Z,5.05
2022-12-03T04:20:16.745Z,5.60
2022-12-03T04:22:44.209Z,5.10
2022-12-03T04:25:11.178Z,4.88
2022-12-03T04:27:38.255Z,5.75
2022-12-03T04:30:06.773Z,5.60
2022-12-03T04:32:33.827Z,5.80
2022-12-03T04:35:01.425Z,4.47
2022-12-03T04:37:29.855Z,5.40
2022-12-03T04:39:56.853Z,4.88
2022-12-03T04:42:23.909Z,4.60
2022-12-03T04:44:50.972Z,5.00
2022-12-03T04:47:21.344Z,5.35
2022-12-03T04:49:50.947Z,4.82
2022-12-03T04:52:20.436Z,5.75
2022-12-03T04:54:48.994Z,4.72
2022-12-03T04:57:15.831Z,5.72
2022-12-03T04:59:42.696Z,5.13
2022-12-03T05:02:10.117Z,5.32
2022-12-03T05:04:37.067Z,5.85
2022-12-03T05:07:03.979Z,4.78
2022-12-03T05:09:32.748Z,4.57
2022-12-03T05:12:01.336Z,4.38
2022-12-03T05:14:28.348Z,4.63
2022-12-03T05:19:46.152Z,4.50
2022-12-03T05:22:13.052Z,5.10
2022-12-03T05:24:40.094Z,4.68
2022-12-03T05:27:08.212Z,4.57
2022-12-03T05:29:35.159Z,5.57
2022-12-03T05:32:02.101Z,4.93
2022-12-03T05:34:29.112Z,4.82
2022-12-03T05:36:56.168Z,5.90
2022-12-03T05:39:23.098Z,5.32
2022-12-03T05:41:50.261Z,4.82
2022-12-03T05:44:20.644Z,5.18
2022-12-03T05:46:47.818Z,5.43
2022-12-03T05:49:14.621Z,4.80
2022-12-03T05:51:43.240Z,5.90
2022-12-03T05:54:10.095Z,5.70
2022-12-03T05:56:36.970Z,4.68
2022-12-03T05:59:03.858Z,5.50
2022-12-03T06:01:32.168Z,5.18
2022-12-03T06:03:59.478Z,5.22
2022-12-03T06:06:26.698Z,5.97
2022-12-03T06:08:53.841Z,4.80
2022-12-03T06:14:05.279Z,5.50
2022-12-03T06:16:33.834Z,5.63
2022-12-03T06:19:00.895Z,5.18
2022-12-03T06:21:28.767Z,4.80
2022-12-03T06:23:55.653Z,5.40
2022-12-03T06:26:22.605Z,5.22
2022-12-03T06:28:49.638Z,4.97
2022-12-03T06:31:16.614Z,5.00
2022-12-03T06:33:44.887Z,4.75
2022-12-03T06:36:12.511Z,4.88
2022-12-03T06:38:39.767Z,4.72
2022-12-03T06:44:22.791Z,5.53
2022-12-03T06:46:49.965Z,5.43
2022-12-03T06:49:18.435Z,4.38
2022-12-03T06:51:45.489Z,4.82
2022-12-03T06:54:12.599Z,5.05
2022-12-03T06:56:45.139Z,4.72
2022-12-03T06:59:12.991Z,5.97
2022-12-03T07:01:40.265Z,5.70
2022-12-03T07:04:07.510Z,5.15
2022-12-03T07:06:35.691Z,5.65
2022-12-03T07:09:02.535Z,6.13
2022-12-03T07:11:29.524Z,6.00
2022-12-03T07:14:01.590Z,5.70
2022-12-03T07:16:31.766Z,4.78
2022-12-03T07:18:58.762Z,5.93
2022-12-03T07:21:25.710Z,5.60
2022-12-03T07:23:54.325Z,5.28
2022-12-03T07:26:21.486Z,5.78
2022-12-03T07:28:48.465Z,6.05
2022-12-03T07:31:15.778Z,5.40
2022-12-03T07:33:42.763Z,4.97
2022-12-03T07:36:10.490Z,5.50
2022-12-03T07:38:38.771Z,5.47
2022-12-03T07:44:23.728Z,6.18
2022-12-03T07:46:50.942Z,5.22
2022-12-03T07:49:17.859Z,5.80
2022-12-03T07:51:45.300Z,6.15
2022-12-03T07:54:12.214Z,6.72
2022-12-03T07:56:40.537Z,9.10
2022-12-03T07:59:07.604Z,7.38
2022-12-03T08:01:34.593Z,7.18
2022-12-03T08:04:01.704Z,6.55
2022-12-03T08:06:29.521Z,7.18
2022-12-03T08:08:56.570Z,6.00
2022-12-03T08:11:23.571Z,4.82
2022-12-03T08:13:51.848Z,5.45
2022-12-03T08:16:22.064Z,5.10
2022-12-03T08:18:54.905Z,5.03
2022-12-03T08:21:23.256Z,5.20
2022-12-03T08:23:50.115Z,5.55
2022-12-03T08:26:23.397Z,5.25
2022-12-03T08:28:52.937Z,6.47
2022-12-03T08:31:26.732Z,5.03
2022-12-03T08:34:17.553Z,5.22
2022-12-03T08:36:45.979Z,4.90
2022-12-03T08:39:32.379Z,5.35
2022-12-03T08:42:13.916Z,5.20
2022-12-03T08:44:42.755Z,4.93
2022-12-03T08:47:19.021Z,5.22
2022-12-03T08:49:53.773Z,5.88
2022-12-03T08:52:30.007Z,6.10
2022-12-03T08:54:57.511Z,5.95
2022-12-03T08:57:31.241Z,4.95
2022-12-03T09:00:15.224Z,5.22
2022-12-03T09:02:48.026Z,5.05
2022-12-03T09:05:20.296Z,5.35
2022-12-03T09:10:15.201Z,5.20
2022-12-03T09:12:42.248Z,5.50
2022-12-03T09:15:11.347Z,5.85
2022-12-03T09:17:38.571Z,5.88
2022-12-03T09:20:07.961Z,6.22
2022-12-03T09:22:34.944Z,6.00
2022-12-03T09:25:01.838Z,5.45
2022-12-03T09:27:28.745Z,5.43
2022-12-03T09:29:55.626Z,6.20
2022-12-03T09:32:24.204Z,5.88
2022-12-03T09:34:51.867Z,6.13
2022-12-03T09:37:19.088Z,5.15
2022-12-03T09:39:46.095Z,5.80
2022-12-03T09:42:13.666Z,5.75
2022-12-03T09:44:40.705Z,6.15
2022-12-03T09:47:08.409Z,5.93
2022-12-03T09:49:38.720Z,5.15
2022-12-03T09:52:08.517Z,5.93
2022-12-03T09:54:35.669Z,5.80
2022-12-03T09:57:04.362Z,6.95
2022-12-03T09:59:34.028Z,5.53
2022-12-03T10:02:02.511Z,6.05
2022-12-03T10:04:30.544Z,5.70
2022-12-03T10:06:59.397Z,5.57
2022-12-03T10:09:30.064Z,5.80
2022-12-03T10:11:59.524Z,5.80
2022-12-03T10:14:27.757Z,6.30
2022-12-03T10:16:55.125Z,5.95
2022-12-03T10:19:27.493Z,6.28
2022-12-03T10:21:54.458Z,6.07
2022-12-03T10:24:26.989Z,5.47
2022-12-03T10:26:56.237Z,5.03
2022-12-03T10:29:29.867Z,5.40
2022-12-03T10:32:03.168Z,5.43
2022-12-03T10:34:33.468Z,5.18
2022-12-03T10:37:17.099Z,6.32
2022-12-03T10:40:00.575Z,5.50
2022-12-03T10:42:30.317Z,5.90
2022-12-03T10:45:13.134Z,6.00
2022-12-03T10:47:41.218Z,5.65
2022-12-03T10:50:19.300Z,6.18
2022-12-03T10:52:47.025Z,6.82
2022-12-03T10:55:16.797Z,4.93
2022-12-03T10:57:46.171Z,6.05
2022-12-03T11:00:17.285Z,9.15
2022-12-03T11:02:45.125Z,6.30
2022-12-03T11:05:15.756Z,6.50
2022-12-03T11:07:44.214Z,5.47
2022-12-03T11:10:17.097Z,6.07
2022-12-03T11:13:42.436Z,5.00
2022-12-03T11:17:07.474Z,4.95
2022-12-03T11:19:48.358Z,4.07
2022-12-03T11:22:39.680Z,5.45
2022-12-03T11:25:48.362Z,4.85
2022-12-03T11:28:52.965Z,4.38
2022-12-03T11:31:39.506Z,5.13
2022-12-03T11:34:47.726Z,5.63
2022-12-03T11:37:32.155Z,5.10
2022-12-03T11:40:20.134Z,5.55
2022-12-03T11:42:49.145Z,5.32
2022-12-03T11:45:23.110Z,5.15
2022-12-03T11:48:09.877Z,6.10
2022-12-03T11:50:40.974Z,4.88
2022-12-03T11:53:19.344Z,6.22
2022-12-03T11:55:49.487Z,5.40
2022-12-03T11:58:24.657Z,5.75
2022-12-03T12:00:54.369Z,5.45
2022-12-03T12:03:25.147Z,6.13
2022-12-03T12:06:04.550Z,4.72
2022-12-03T12:08:32.890Z,5.28
2022-12-03T12:11:00.470Z,8.18
2022-12-03T12:13:55.242Z,6.22
2022-12-03T12:16:53.188Z,6.82
2022-12-03T12:19:38.890Z,5.80
2022-12-03T12:22:31.750Z,7.68
2022-12-03T12:25:00.173Z,6.60
2022-12-03T12:27:34.386Z,6.65
2022-12-03T12:30:06.247Z,6.25
2022-12-03T12:32:42.015Z,5.50
2022-12-03T12:35:27.098Z,7.15
2022-12-03T12:38:04.353Z,5.55
2022-12-03T12:40:36.379Z,5.97
2022-12-03T12:43:15.485Z,5.47
2022-12-03T12:45:45.274Z,6.07
2022-12-03T12:48:22.481Z,6.18
2022-12-03T12:50:58.599Z,5.60
2022-12-03T12:53:27.703Z,5.13
2022-12-03T12:55:58.414Z,5.80
2022-12-03T12:58:28.382Z,6.32
2022-12-03T13:01:00.292Z,6.22
2022-12-03T13:03:53.579Z,5.30
2022-12-03T13:06:26.378Z,5.20
2022-12-03T13:08:54.606Z,5.72
2022-12-03T13:11:36.380Z,5.18
2022-12-03T13:14:14.711Z,5.18
2022-12-03T13:16:43.290Z,6.05
2022-12-03T13:19:23.896Z,6.07
2022-12-03T13:21:53.683Z,5.57
2022-12-03T13:24:33.018Z,5.63
2022-12-03T13:27:08.633Z,6.00
2022-12-03T13:29:35.582Z,5.93
2022-12-03T13:32:13.560Z,5.63
2022-12-03T13:34:40.911Z,5.50
2022-12-03T13:37:15.604Z,5.85
2022-12-03T13:39:46.908Z,6.38
2022-12-03T13:42:21.609Z,6.50
2022-12-03T13:44:53.645Z,5.80
2022-12-03T13:47:23.672Z,5.50
2022-12-03T13:49:54.393Z,5.65
2022-12-03T13:52:25.081Z,6.07
2022-12-03T13:54:55.889Z,6.75
2022-12-03T13:57:23.246Z,6.88
2022-12-03T13:59:50.982Z,6.00
2022-12-03T14:02:18.044Z,5.75
2022-12-03T14:04:46.613Z,6.28
2022-12-03T14:07:13.495Z,6.57
2022-12-03T14:09:41.507Z,6.00
2022-12-03T14:12:08.749Z,6.70
2022-12-03T14:14:35.901Z,7.13
2022-12-03T14:17:02.903Z,7.05
2022-12-03T14:19:30.622Z,7.25
2022-12-03T14:21:59.006Z,7.75
2022-12-03T14:24:26.043Z,7.40
2022-12-03T14:26:52.894Z,7.35
2022-12-03T14:29:19.734Z,7.47
2022-12-03T14:31:46.574Z,6.55
2022-12-03T14:34:13.552Z,7.25
2022-12-03T14:36:40.294Z,7.53
2022-12-03T14:39:08.470Z,6.90
2022-12-03T14:44:26.410Z,17.33
2022-12-03T14:46:57.101Z,24.67
2022-12-03T14:49:24.783Z,14.52
2022-12-03T14:51:51.853Z,14.57
2022-12-03T14:54:20.182Z,12.35
2022-12-03T14:56:47.223Z,10.77
2022-12-03T14:59:14.408Z,10.93
2022-12-03T15:01:41.752Z,7.63
2022-12-03T15:04:08.890Z,7.55
2022-12-03T15:06:35.949Z,8.98
2022-12-03T15:09:03.821Z,8.02
2022-12-03T15:11:32.748Z,8.02
2022-12-03T15:13:59.615Z,6.25
2022-12-03T15:16:26.703Z,6.00
2022-12-03T15:18:53.747Z,7.13
2022-12-03T15:21:20.653Z,6.93
2022-12-03T15:23:47.547Z,7.70
2022-12-03T15:26:14.428Z,6.03
2022-12-03T15:28:47.963Z,5.65
2022-12-03T15:31:15.249Z,6.70
2022-12-03T15:33:42.334Z,6.47
2022-12-03T15:36:09.633Z,6.90
2022-12-03T15:38:39.582Z,5.20
2022-12-03T15:44:23.953Z,6.88
2022-12-03T15:46:50.994Z,6.57
2022-12-03T15:49:17.770Z,6.25
2022-12-03T15:51:44.796Z,8.35
2022-12-03T15:54:11.710Z,9.48
2022-12-03T15:56:38.758Z,12.90
2022-12-03T15:59:05.997Z,8.57
2022-12-03T16:01:34.582Z,7.90
2022-12-03T16:04:05.183Z,6.93
2022-12-03T16:06:32.232Z,6.03
2022-12-03T16:08:59.816Z,6.78
2022-12-03T16:11:26.833Z,7.55
2022-12-03T16:13:53.775Z,6.10
2022-12-03T16:16:20.693Z,6.32
2022-12-03T16:18:53.348Z,6.15
2022-12-03T16:21:26.222Z,6.63
2022-12-03T16:23:54.529Z,5.43
2022-12-03T16:26:21.825Z,6.55
2022-12-03T16:28:48.811Z,5.95
2022-12-03T16:31:15.945Z,5.75
2022-12-03T16:33:45.371Z,5.72
2022-12-03T16:36:13.767Z,6.97
2022-12-03T16:38:40.677Z,5.32
2022-12-03T16:44:24.949Z,5.25
2022-12-03T16:46:52.177Z,6.00
2022-12-03T16:49:19.132Z,5.85
2022-12-03T16:51:47.589Z,7.03
2022-12-03T16:54:15.011Z,6.90
2022-12-03T16:56:42.163Z,6.82
2022-12-03T16:59:09.241Z,5.15
2022-12-03T17:01:36.855Z,5.80
2022-12-03T17:04:03.924Z,5.90
2022-12-03T17:06:31.010Z,5.65
2022-12-03T17:08:59.516Z,5.50
2022-12-03T17:11:26.412Z,4.78
2022-12-03T17:13:54.043Z,5.40
2022-12-03T17:16:21.146Z,5.65
2022-12-03T17:18:48.224Z,5.85
2022-12-03T17:21:15.171Z,6.18
2022-12-03T17:23:42.244Z,9.20
2022-12-03T17:26:10.696Z,12.00
2022-12-03T17:28:37.739Z,6.93
2022-12-03T17:31:05.525Z,7.20
2022-12-03T17:33:32.886Z,5.88
2022-12-03T17:36:00.335Z,5.03
2022-12-03T17:38:27.800Z,5.35
2022-12-03T17:40:54.705Z,6.32
2022-12-03T17:43:23.434Z,6.43
2022-12-03T17:45:50.523Z,6.13
2022-12-03T17:48:17.663Z,6.15
2022-12-03T17:50:44.496Z,6.22
2022-12-03T17:53:12.129Z,6.47
2022-12-03T17:55:44.593Z,4.35
2022-12-03T17:58:13.069Z,6.20
2022-12-03T18:00:41.687Z,6.50
2022-12-03T18:03:08.776Z,6.00
2022-12-03T18:05:35.925Z,5.88
2022-12-03T18:08:03.155Z,5.65
2022-12-03T18:10:30.252Z,8.80
2022-12-03T18:13:01.669Z,10.63
2022-12-03T18:15:29.995Z,10.63
2022-12-03T18:17:58.563Z,8.10
2022-12-03T18:20:25.514Z,5.93
2022-12-03T18:22:52.668Z,5.80
2022-12-03T18:25:20.397Z,5.13
2022-12-03T18:27:47.498Z,5.18
2022-12-03T18:30:15.065Z,6.18
2022-12-03T18:32:42.273Z,6.10
2022-12-03T18:35:10.684Z,5.65
2022-12-03T18:37:39.183Z,5.20
2022-12-03T18:40:13.060Z,6.15
2022-12-03T18:42:40.587Z,5.05
2022-12-03T18:45:12.539Z,5.57
2022-12-03T18:47:39.778Z,5.10
2022-12-03T18:50:10.925Z,4.38
2022-12-03T18:52:38.409Z,5.13
2022-12-03T18:55:08.004Z,4.75
2022-12-03T18:57:35.054Z,4.88
2022-12-03T19:00:13.090Z,4.88
2022-12-03T19:05:29.582Z,6.00
2022-12-03T19:07:56.993Z,5.10
2022-12-03T19:10:25.213Z,5.50
2022-12-03T19:12:52.321Z,4.65
2022-12-03T19:15:19.636Z,6.00
2022-12-03T19:17:48.427Z,5.40
2022-12-03T19:20:15.381Z,5.85
2022-12-03T19:22:43.747Z,5.88
2022-12-03T19:25:11.104Z,6.10
2022-12-03T19:27:38.221Z,6.45
2022-12-03T19:30:07.379Z,6.03
2022-12-03T19:32:34.843Z,5.38
2022-12-03T19:35:02.102Z,7.10
2022-12-03T19:37:32.028Z,7.85
2022-12-03T19:40:00.462Z,9.40
2022-12-03T19:42:27.667Z,7.90
2022-12-03T19:44:54.955Z,6.45
2022-12-03T19:47:22.203Z,7.28
2022-12-03T19:49:49.316Z,6.85
2022-12-03T19:52:16.284Z,6.78
2022-12-03T19:55:10.343Z,5.50
2022-12-03T19:57:37.769Z,7.55
2022-12-03T20:00:07.346Z,7.13
2022-12-03T20:02:39.466Z,8.25
2022-12-03T20:05:06.888Z,7.78
2022-12-03T20:07:33.836Z,21.35
2022-12-03T20:10:00.920Z,9.80
2022-12-03T20:12:29.157Z,8.32
2022-12-03T20:14:56.208Z,8.65
2022-12-03T20:17:23.217Z,8.00
2022-12-03T20:19:50.299Z,8.40
2022-12-03T20:25:09.796Z,7.68
2022-12-03T20:27:38.466Z,6.20
2022-12-03T20:30:07.268Z,8.55
2022-12-03T20:32:36.581Z,7.38
2022-12-03T20:35:05.780Z,9.23
2022-12-03T20:37:32.684Z,10.25
2022-12-03T20:39:59.676Z,8.68
2022-12-03T20:42:26.718Z,10.57
2022-12-03T20:44:55.416Z,10.05
2022-12-03T20:47:22.465Z,22.48
2022-12-03T20:49:49.633Z,10.27
2022-12-03T20:52:16.643Z,9.88
2022-12-03T20:54:43.841Z,9.13
2022-12-03T20:57:10.981Z,9.90
2022-12-03T20:59:37.929Z,10.07
2022-12-03T21:02:10.289Z,7.90
2022-12-03T21:04:37.356Z,10.37
2022-12-03T21:07:04.429Z,9.73
2022-12-03T21:09:32.503Z,7.45
2022-12-03T21:11:59.443Z,9.15
2022-12-03T21:14:26.715Z,9.97
2022-12-03T21:17:08.320Z,11.57
2022-12-03T21:22:04.749Z,10.03
2022-12-03T21:24:31.910Z,9.37
2022-12-03T21:26:58.984Z,8.93
2022-12-03T21:29:25.856Z,9.97
2022-12-03T21:31:52.962Z,9.38
2022-12-03T21:34:19.833Z,10.10
2022-12-03T21:36:48.115Z,11.30
2022-12-03T21:39:15.454Z,9.17
2022-12-03T21:42:34.328Z,9.45
2022-12-03T21:44:30.158Z,9.82
2022-12-03T21:47:10.838Z,9.63
2022-12-03T21:49:41.213Z,8.68
2022-12-03T21:52:09.933Z,8.87
2022-12-03T21:54:37.072Z,9.27
2022-12-03T21:57:04.135Z,9.45
2022-12-03T21:59:31.109Z,10.17
2022-12-03T22:01:58.393Z,11.90
2022-12-03T22:04:25.492Z,8.47
2022-12-03T22:06:52.473Z,8.32
2022-12-03T22:09:26.263Z,8.67
2022-12-03T22:11:54.067Z,9.33
2022-12-03T22:14:21.071Z,8.90
2022-12-03T22:16:48.001Z,8.93
2022-12-03T22:19:14.847Z,10.20
2022-12-03T22:21:41.894Z,9.50
2022-12-03T22:24:09.092Z,9.57
2022-12-03T22:26:37.301Z,9.23
2022-12-03T22:29:04.457Z,9.47
2022-12-03T22:31:31.318Z,9.93
2022-12-03T22:33:58.829Z,8.20
2022-12-03T22:36:25.774Z,8.53
2022-12-03T22:38:53.353Z,9.03
2022-12-03T22:41:21.143Z,8.80
2022-12-03T22:43:50.134Z,9.77
2022-12-03T22:46:17.804Z,10.10
2022-12-03T22:48:46.786Z,7.53
2022-12-03T22:51:16.397Z,9.87
2022-12-03T22:53:43.729Z,9.80
2022-12-03T22:56:10.706Z,9.70
2022-12-03T22:58:39.273Z,9.18
2022-12-03T23:01:14.724Z,8.03
2022-12-03T23:03:41.635Z,9.87
2022-12-03T23:06:12.396Z,8.27
2022-12-03T23:08:39.718Z,9.87
2022-12-03T23:11:07.484Z,8.87
2022-12-03T23:13:34.987Z,8.47
2022-12-03T23:16:02.604Z,9.00
2022-12-03T23:18:31.309Z,10.27
2022-12-03T23:20:58.707Z,10.27
2022-12-03T23:23:28.247Z,7.73
2022-12-03T23:25:59.668Z,8.97
2022-12-03T23:28:29.176Z,9.27
2022-12-03T23:30:56.680Z,10.20
2022-12-03T23:33:24.823Z,9.77
2022-12-03T23:35:53.962Z,7.93
2022-12-03T23:38:21.213Z,8.17
2022-12-03T23:40:48.620Z,9.33
2022-12-03T23:43:16.746Z,9.18
2022-12-03T23:45:43.906Z,8.50
2022-12-03T23:48:11.036Z,8.47
2022-12-03T23:50:39.171Z,9.90
2022-12-03T23:53:07.760Z,10.43
2022-12-03T23:55:38.135Z,9.77
2022-12-03T23:58:05.481Z,7.13
